createdAt,value
2023-03-25T00:02:07.890Z,8.00
2023-03-25T00:17:08.481Z,8.16
2023-03-25T00:32:09.177Z,7.92
2023-03-25T00:47:09.441Z,7.69
2023-03-25T01:02:09.703Z,7.77
2023-03-25T01:17:10.160Z,7.60
2023-03-25T01:32:10.295Z,7.74
2023-03-25T01:47:10.540Z,7.71
2023-03-25T02:02:11.425Z,7.52
2023-03-25T02:17:12.086Z,7.52
2023-03-25T02:32:12.151Z,7.67
2023-03-25T02:47:12.450Z,8.10
2023-03-25T03:04:40.301Z,8.26
2023-03-25T03:19:41.082Z,8.55
2023-03-25T03:34:41.608Z,8.74
2023-03-25T03:49:42.288Z,8.34
2023-03-25T04:04:42.496Z,8.37
2023-03-25T04:19:42.694Z,8.23
2023-03-25T04:34:42.898Z,8.25
2023-03-25T04:49:43.150Z,8.33
2023-03-25T05:04:43.366Z,8.15
2023-03-25T05:19:43.552Z,8.15
2023-03-25T05:34:43.985Z,8.25
2023-03-25T05:49:43.932Z,8.56
2023-03-25T06:04:44.169Z,8.87
2023-03-25T06:19:44.498Z,9.04
2023-03-25T06:34:44.647Z,9.38
2023-03-25T06:49:45.250Z,10.66
2023-03-25T07:04:45.109Z,11.57
2023-03-25T07:19:45.457Z,11.99
2023-03-25T07:34:45.280Z,12.47
2023-03-25T07:49:45.289Z,12.10
2023-03-25T08:04:46.165Z,11.52
2023-03-25T08:19:46.884Z,11.64
2023-03-25T08:34:47.035Z,11.98
2023-03-25T08:49:47.422Z,11.78
2023-03-25T09:04:47.584Z,11.83
2023-03-25T09:19:48.228Z,12.57
2023-03-25T09:34:48.681Z,13.12
2023-03-25T09:49:48.844Z,12.87
2023-03-25T10:04:48.847Z,13.00
2023-03-25T10:19:48.488Z,13.36
2023-03-25T10:34:49.008Z,14.18
2023-03-25T10:49:49.115Z,14.14
2023-03-25T11:04:48.758Z,13.66
2023-03-25T11:19:49.256Z,13.69
2023-03-25T11:34:49.351Z,14.43
2023-03-25T11:49:48.987Z,14.57
2023-03-25T12:04:49.088Z,13.55
2023-03-25T12:19:50.902Z,14.00
2023-03-25T12:34:50.930Z,14.28
2023-03-25T12:49:50.689Z,12.41
2023-03-25T13:04:50.686Z,12.59
2023-03-25T13:19:51.214Z,12.85
2023-03-25T13:34:50.898Z,12.65
2023-03-25T13:49:51.325Z,13.78
2023-03-25T14:04:51.055Z,13.52
2023-03-25T14:57:03.616Z,12.54
2023-03-25T15:12:03.639Z,15.51
2023-03-25T15:27:03.806Z,17.25
2023-03-25T15:42:03.784Z,18.66
2023-03-25T15:57:03.920Z,20.61
2023-03-25T16:12:03.976Z,21.56
2023-03-25T16:27:05.161Z,22.06
2023-03-25T16:42:05.129Z,22.25
2023-03-25T16:57:05.674Z,22.27
2023-03-25T17:12:05.356Z,22.17
2023-03-25T17:27:05.508Z,22.12
2023-03-25T17:42:05.831Z,22.10
2023-03-25T17:57:05.554Z,22.06
2023-03-25T18:12:06.052Z,22.02
2023-03-25T18:27:05.707Z,21.98
2023-03-25T18:42:05.766Z,21.94
2023-03-25T18:57:06.059Z,21.92
2023-03-25T19:12:05.941Z,21.91
2023-03-25T19:27:06.136Z,21.98
2023-03-25T19:42:06.117Z,21.77
2023-03-25T19:57:06.726Z,21.65
2023-03-25T20:12:07.276Z,21.40
2023-03-25T20:27:07.818Z,21.38
2023-03-25T20:42:07.950Z,21.34
2023-03-25T20:57:08.111Z,21.21
2023-03-25T21:12:08.538Z,21.16
2023-03-25T21:27:08.260Z,21.19
2023-03-25T21:42:09.885Z,21.24
2023-03-25T21:57:23.477Z,21.47
2023-03-25T22:12:24.094Z,21.65
2023-03-25T22:27:24.651Z,21.58
2023-03-25T22:42:24.692Z,21.40
2023-03-25T22:57:25.244Z,21.17
2023-03-25T23:12:25.791Z,20.99
2023-03-25T23:27:25.570Z,20.74
2023-03-25T23:42:35.558Z,20.73
2023-03-25T23:57:31.162Z,20.55
